createdAt,value
2023-06-29T00:02:13.092Z,100476.59
2023-06-29T00:04:42.811Z,100469.03
2023-06-29T00:07:10.682Z,100470.19
2023-06-29T00:09:38.544Z,100474.59
2023-06-29T00:12:10.101Z,100477.81
2023-06-29T00:14:37.895Z,100471.28
2023-06-29T00:17:07.328Z,100472.16
2023-06-29T00:19:36.405Z,100471.69
2023-06-29T00:22:04.281Z,100467.81
2023-06-29T00:24:32.047Z,100468.19
2023-06-29T00:26:59.948Z,100472.25
2023-06-29T00:29:27.831Z,100472.25
2023-06-29T00:31:55.628Z,100469.34
2023-06-29T00:34:24.729Z,100477.16
2023-06-29T00:36:52.477Z,100464.34
2023-06-29T00:39:23.111Z,100457.25
2023-06-29T00:41:54.375Z,100467.53
2023-06-29T00:44:22.134Z,100460.16
2023-06-29T00:46:51.422Z,100461.50
2023-06-29T00:49:20.454Z,100458.66
2023-06-29T00:51:51.719Z,100456.78
2023-06-29T00:54:19.807Z,100456.44
2023-06-29T00:56:48.045Z,100454.75
2023-06-29T00:59:15.940Z,100450.38
2023-06-29T01:01:45.427Z,100447.50
2023-06-29T01:04:25.941Z,100442.81
2023-06-29T01:07:02.055Z,100445.16
2023-06-29T01:09:31.832Z,100436.56
2023-06-29T01:12:01.040Z,100439.09
2023-06-29T01:14:30.680Z,100435.38
2023-06-29T01:16:59.634Z,100430.84
2023-06-29T01:19:30.931Z,100430.16
2023-06-29T01:22:04.297Z,100435.06
2023-06-29T01:24:39.355Z,100427.50
2023-06-29T01:27:08.694Z,100433.06
2023-06-29T01:29:36.806Z,100440.81
2023-06-29T01:32:05.237Z,100426.47
2023-06-29T01:34:34.171Z,100429.53
2023-06-29T01:37:07.018Z,100429.53
2023-06-29T01:39:42.730Z,100430.72
2023-06-29T01:42:11.958Z,100429.03
2023-06-29T01:44:39.839Z,100429.38
2023-06-29T01:47:09.481Z,100427.88
2023-06-29T01:49:38.667Z,100427.56
2023-06-29T01:52:07.643Z,100426.38
2023-06-29T01:54:36.827Z,100425.00
2023-06-29T01:57:07.021Z,100423.50
2023-06-29T01:59:35.329Z,100423.81
2023-06-29T02:02:03.746Z,100421.81
2023-06-29T02:04:31.495Z,100429.78
2023-06-29T02:07:01.762Z,100431.63
2023-06-29T02:09:29.603Z,100438.41
2023-06-29T02:11:58.844Z,100436.53
2023-06-29T02:14:26.654Z,100435.56
2023-06-29T02:16:54.377Z,100437.94
2023-06-29T02:19:22.101Z,100433.72
2023-06-29T02:21:49.834Z,100436.06
2023-06-29T02:24:17.624Z,100432.03
2023-06-29T02:26:45.478Z,100434.41
2023-06-29T02:29:15.665Z,100432.91
2023-06-29T02:31:43.443Z,100438.47
2023-06-29T02:34:11.351Z,100423.44
2023-06-29T02:36:40.410Z,100420.09
2023-06-29T02:39:08.477Z,100406.63
2023-06-29T02:41:36.206Z,100408.84
2023-06-29T02:44:04.000Z,100411.03
2023-06-29T02:46:33.108Z,100399.41
2023-06-29T02:49:00.936Z,100394.69
2023-06-29T02:51:28.663Z,100390.97
2023-06-29T02:53:56.429Z,100397.19
2023-06-29T02:56:24.202Z,100390.44
2023-06-29T02:58:51.996Z,100396.69
2023-06-29T03:01:19.822Z,100400.56
2023-06-29T03:03:48.990Z,100405.47
2023-06-29T03:06:16.749Z,100405.94
2023-06-29T03:08:44.532Z,100414.53
2023-06-29T03:11:12.337Z,100411.84
2023-06-29T03:13:40.085Z,100408.97
2023-06-29T03:16:10.290Z,100403.41
2023-06-29T03:18:38.804Z,100403.94
2023-06-29T03:21:17.589Z,100407.63
2023-06-29T03:23:46.022Z,100404.75
2023-06-29T03:26:13.805Z,100406.94
2023-06-29T03:28:41.704Z,100402.75
2023-06-29T03:31:09.438Z,100404.75
2023-06-29T03:33:37.243Z,100404.75
2023-06-29T03:36:06.016Z,100400.56
2023-06-29T03:38:35.464Z,100402.38
2023-06-29T03:41:03.259Z,100400.38
2023-06-29T03:43:31.011Z,100391.47
2023-06-29T03:46:00.011Z,100397.34
2023-06-29T03:48:28.859Z,100395.34
2023-06-29T03:50:57.697Z,100386.06
2023-06-29T03:53:25.539Z,100389.28
2023-06-29T03:55:54.750Z,100381.88
2023-06-29T03:58:22.666Z,100383.91
2023-06-29T04:00:51.949Z,100385.41
2023-06-29T04:03:19.828Z,100380.88
2023-06-29T04:05:47.810Z,100380.88
2023-06-29T04:08:15.634Z,100387.09
2023-06-29T04:10:43.436Z,100379.84
2023-06-29T04:13:12.586Z,100377.31
2023-06-29T04:15:40.384Z,100385.91
2023-06-29T04:18:08.997Z,100389.63
2023-06-29T04:20:38.098Z,100387.94
2023-06-29T04:23:05.824Z,100378.66
2023-06-29T04:25:34.281Z,100384.41
2023-06-29T04:28:02.043Z,100389.44
2023-06-29T04:30:31.218Z,100381.38
2023-06-29T04:33:04.286Z,100386.75
2023-06-29T04:35:32.098Z,100378.69
2023-06-29T04:38:00.377Z,100376.00
2023-06-29T04:40:28.201Z,100377.84
2023-06-29T04:42:58.774Z,100369.75
2023-06-29T04:45:27.592Z,100373.75
2023-06-29T04:47:57.462Z,100372.88
2023-06-29T04:50:27.265Z,100375.53
2023-06-29T04:52:55.446Z,100372.66
2023-06-29T04:55:23.465Z,100367.06
2023-06-29T04:57:51.335Z,100371.38
2023-06-29T05:00:20.675Z,100372.00
2023-06-29T05:02:48.643Z,100372.66
2023-06-29T05:05:18.137Z,100374.47
2023-06-29T05:07:45.975Z,100370.69
2023-06-29T05:10:13.841Z,100366.44
2023-06-29T05:12:41.729Z,100370.47
2023-06-29T05:15:10.806Z,100362.66
2023-06-29T05:17:38.829Z,100358.63
2023-06-29T05:20:07.774Z,100365.13
2023-06-29T05:22:37.239Z,100366.59
2023-06-29T05:25:05.705Z,100366.03
2023-06-29T05:27:33.537Z,100369.03
2023-06-29T05:30:02.024Z,100363.56
2023-06-29T05:32:29.877Z,100371.59
2023-06-29T05:34:57.748Z,100369.16
2023-06-29T05:37:25.966Z,100367.78
2023-06-29T05:39:55.820Z,100367.47
2023-06-29T05:42:23.620Z,100375.00
2023-06-29T05:44:51.284Z,100368.03
2023-06-29T05:47:20.165Z,100367.28
2023-06-29T05:49:48.000Z,100368.59
2023-06-29T05:52:15.783Z,100364.97
2023-06-29T05:54:43.559Z,100360.53
2023-06-29T05:57:12.751Z,100358.09
2023-06-29T05:59:40.517Z,100365.00
2023-06-29T06:02:08.614Z,100359.69
2023-06-29T06:04:36.662Z,100353.53
2023-06-29T06:07:04.875Z,100355.09
2023-06-29T06:09:32.818Z,100353.22
2023-06-29T06:12:00.730Z,100348.75
2023-06-29T06:14:29.833Z,100355.06
2023-06-29T06:16:57.663Z,100356.28
2023-06-29T06:19:25.383Z,100359.34
2023-06-29T06:21:53.225Z,100352.81
2023-06-29T06:24:21.021Z,100352.69
2023-06-29T06:26:48.777Z,100358.16
2023-06-29T06:29:16.611Z,100347.84
2023-06-29T06:31:45.862Z,100343.41
2023-06-29T06:34:13.636Z,100347.66
2023-06-29T06:36:41.406Z,100346.88
2023-06-29T06:39:09.834Z,100346.31
2023-06-29T06:41:37.622Z,100354.53
2023-06-29T06:44:05.837Z,100348.88
2023-06-29T06:46:36.281Z,100335.88
2023-06-29T06:49:05.480Z,100343.88
2023-06-29T06:51:33.310Z,100346.84
2023-06-29T06:54:01.154Z,100336.06
2023-06-29T06:56:28.970Z,100343.03
2023-06-29T06:58:56.818Z,100336.97
2023-06-29T07:01:25.921Z,100343.50
2023-06-29T07:03:54.066Z,100338.81
2023-06-29T07:06:23.251Z,100339.31
2023-06-29T07:08:51.158Z,100331.41
2023-06-29T07:11:19.068Z,100331.66
2023-06-29T07:13:46.931Z,100327.28
2023-06-29T07:16:14.816Z,100330.03
2023-06-29T07:19:02.488Z,100334.44
2023-06-29T07:21:31.697Z,100329.72
2023-06-29T07:26:30.547Z,100321.38
2023-06-29T07:28:58.346Z,100326.38
2023-06-29T07:31:26.816Z,100334.09
2023-06-29T07:33:55.146Z,100333.91
2023-06-29T07:36:23.212Z,100327.84
2023-06-29T07:38:52.402Z,100325.31
2023-06-29T07:41:22.214Z,100327.19
2023-06-29T07:43:52.661Z,100327.00
2023-06-29T07:46:20.765Z,100320.13
2023-06-29T07:48:49.174Z,100322.41
2023-06-29T08:02:39.431Z,100314.28
2023-06-29T08:07:39.719Z,100306.91
2023-06-29T08:10:08.709Z,100314.44
2023-06-29T08:12:36.527Z,100317.72
2023-06-29T08:15:04.686Z,100318.91
2023-06-29T08:17:32.660Z,100305.44
2023-06-29T08:20:02.126Z,100319.03
2023-06-29T08:22:30.014Z,100315.97
2023-06-29T08:24:57.888Z,100306.28
2023-06-29T08:27:25.710Z,100314.97
2023-06-29T08:29:54.004Z,100314.84
2023-06-29T08:32:21.986Z,100319.34
2023-06-29T08:34:49.807Z,100318.13
2023-06-29T08:37:18.939Z,100307.34
2023-06-29T08:39:46.706Z,100306.19
2023-06-29T08:42:14.761Z,100298.38
2023-06-29T08:44:42.670Z,100296.31
2023-06-29T08:47:13.140Z,100299.03
2023-06-29T08:49:43.136Z,100302.66
2023-06-29T08:52:15.298Z,100299.94
2023-06-29T08:54:47.363Z,100291.44
2023-06-29T08:57:17.826Z,100295.13
2023-06-29T08:59:47.081Z,100289.97
2023-06-29T09:02:15.182Z,100288.91
2023-06-29T09:04:45.100Z,100283.22
2023-06-29T09:07:13.336Z,100294.31
2023-06-29T09:09:41.290Z,100289.94
2023-06-29T09:12:22.877Z,100288.56
2023-06-29T09:14:50.834Z,100284.88
2023-06-29T09:17:19.739Z,100282.84
2023-06-29T09:19:55.304Z,100282.25
2023-06-29T09:22:23.603Z,100283.16
2023-06-29T09:25:03.508Z,100283.84
2023-06-29T09:27:37.182Z,100281.72
2023-06-29T09:30:06.710Z,100278.25
2023-06-29T09:32:39.804Z,100276.00
2023-06-29T09:35:09.245Z,100266.59
2023-06-29T09:37:38.381Z,100268.97
2023-06-29T09:40:11.107Z,100273.34
2023-06-29T09:42:42.066Z,100268.63
2023-06-29T09:49:40.719Z,100271.25
2023-06-29T09:52:09.691Z,100270.31
2023-06-29T09:54:37.886Z,100272.22
2023-06-29T09:57:06.413Z,100276.25
2023-06-29T09:59:36.584Z,100280.56
2023-06-29T10:02:05.219Z,100267.50
2023-06-29T10:04:33.140Z,100258.72
2023-06-29T10:07:07.060Z,100265.50
2023-06-29T10:09:38.670Z,100261.81
2023-06-29T10:12:09.473Z,100252.34
2023-06-29T10:14:39.001Z,100256.91
2023-06-29T10:17:13.109Z,100254.75
2023-06-29T10:19:45.580Z,100256.03
2023-06-29T10:22:17.837Z,100246.06
2023-06-29T10:24:49.812Z,100252.94
2023-06-29T10:27:18.591Z,100258.19
2023-06-29T10:29:50.379Z,100255.69
2023-06-29T10:36:05.702Z,100248.56
2023-06-29T10:38:34.619Z,100247.97
2023-06-29T10:41:02.904Z,100246.66
2023-06-29T10:43:30.707Z,100253.66
2023-06-29T10:46:01.457Z,100250.34
2023-06-29T10:48:47.122Z,100248.97
2023-06-29T10:51:16.802Z,100239.34
2023-06-29T10:53:49.167Z,100246.84
2023-06-29T10:56:31.040Z,100244.13
2023-06-29T10:59:00.333Z,100243.16
2023-06-29T11:01:30.231Z,100239.47
2023-06-29T11:03:58.165Z,100240.06
2023-06-29T11:06:34.227Z,100234.59
2023-06-29T11:09:03.948Z,100235.03
2023-06-29T11:12:20.772Z,100233.78
2023-06-29T11:14:49.639Z,100231.50
2023-06-29T11:17:21.462Z,100231.38
2023-06-29T11:19:49.493Z,100233.19
2023-06-29T11:22:17.500Z,100229.16
2023-06-29T11:24:45.434Z,100226.56
2023-06-29T11:27:13.350Z,100223.97
2023-06-29T11:29:41.256Z,100225.59
2023-06-29T11:32:11.584Z,100229.44
2023-06-29T11:34:41.032Z,100225.50
2023-06-29T11:37:15.768Z,100223.69
2023-06-29T11:39:44.151Z,100227.13
2023-06-29T11:42:12.096Z,100221.97
2023-06-29T11:44:40.610Z,100220.44
2023-06-29T11:47:31.418Z,100216.38
2023-06-29T11:50:01.246Z,100220.75
2023-06-29T11:52:31.538Z,100216.72
2023-06-29T11:55:00.207Z,100214.69
2023-06-29T11:57:28.257Z,100209.31
2023-06-29T11:59:56.099Z,100216.69
2023-06-29T12:02:25.220Z,100205.16
2023-06-29T12:04:57.861Z,100200.97
2023-06-29T12:07:46.248Z,100204.34
2023-06-29T12:10:15.949Z,100203.63
2023-06-29T12:12:45.290Z,100203.41
2023-06-29T12:15:17.560Z,100200.66
2023-06-29T12:20:19.243Z,100199.50
2023-06-29T12:26:29.242Z,100192.63
2023-06-29T12:28:58.076Z,100192.78
2023-06-29T12:31:30.550Z,100193.75
2023-06-29T12:33:59.116Z,100186.03
2023-06-29T12:36:27.182Z,100186.09
2023-06-29T12:38:55.315Z,100189.66
2023-06-29T12:41:23.305Z,100183.78
2023-06-29T12:43:52.500Z,100179.03
2023-06-29T12:46:23.903Z,100176.81
2023-06-29T12:48:51.753Z,100171.88
2023-06-29T12:51:19.589Z,100165.31
2023-06-29T12:53:47.505Z,100170.31
2023-06-29T12:56:15.653Z,100175.38
2023-06-29T12:58:43.459Z,100167.75
2023-06-29T13:01:12.717Z,100167.16
2023-06-29T13:03:40.739Z,100171.47
2023-06-29T13:06:08.732Z,100166.47
2023-06-29T13:08:36.721Z,100163.91
2023-06-29T13:11:05.763Z,100167.00
2023-06-29T13:13:33.623Z,100167.34
2023-06-29T13:16:01.522Z,100163.50
2023-06-29T13:18:30.778Z,100161.34
2023-06-29T13:20:58.606Z,100156.56
2023-06-29T13:23:26.403Z,100160.25
2023-06-29T13:26:49.704Z,100158.50
2023-06-29T13:29:18.443Z,100156.28
2023-06-29T13:31:46.166Z,100146.94
2023-06-29T13:34:15.463Z,100152.34
2023-06-29T13:36:43.336Z,100155.19
2023-06-29T13:39:11.187Z,100146.28
2023-06-29T13:45:26.415Z,100141.22
2023-06-29T13:48:01.094Z,100134.63
2023-06-29T13:50:40.873Z,100132.66
2023-06-29T13:53:09.576Z,100129.09
2023-06-29T13:55:37.699Z,100120.88
2023-06-29T13:58:05.507Z,100126.94
2023-06-29T14:01:19.080Z,100122.75
2023-06-29T14:03:47.767Z,100124.88
2023-06-29T14:06:19.780Z,100120.69
2023-06-29T14:08:47.555Z,100117.88
2023-06-29T14:11:15.463Z,100122.19
2023-06-29T14:13:43.359Z,100129.25
2023-06-29T14:16:14.336Z,100118.09
2023-06-29T14:18:42.417Z,100110.84
2023-06-29T14:21:13.205Z,100109.38
2023-06-29T14:23:42.263Z,100104.25
2023-06-29T14:26:10.031Z,100105.00
2023-06-29T14:29:56.210Z,100095.38
2023-06-29T14:32:23.990Z,100091.81
2023-06-29T14:34:51.765Z,100099.03
2023-06-29T14:37:19.658Z,100093.81
2023-06-29T14:39:48.866Z,100089.63
2023-06-29T14:42:16.676Z,100085.28
2023-06-29T14:44:45.067Z,100077.38
2023-06-29T14:47:13.513Z,100081.78
2023-06-29T14:49:41.392Z,100076.31
2023-06-29T14:52:09.550Z,100068.66
2023-06-29T14:54:38.444Z,100055.78
2023-06-29T14:57:07.961Z,100053.47
2023-06-29T14:59:57.197Z,100044.88
2023-06-29T15:02:25.526Z,100048.72
2023-06-29T15:04:53.381Z,100044.09
2023-06-29T15:07:22.373Z,100048.66
2023-06-29T15:09:52.087Z,100042.84
2023-06-29T15:12:21.204Z,100029.34
2023-06-29T15:15:32.530Z,100039.59
2023-06-29T15:18:00.996Z,100039.25
2023-06-29T15:20:28.848Z,100034.88
2023-06-29T15:22:56.656Z,100034.31
2023-06-29T15:25:24.551Z,100039.69
2023-06-29T15:27:54.033Z,100037.28
2023-06-29T15:30:21.782Z,100021.75
2023-06-29T15:32:49.626Z,100024.81
2023-06-29T15:36:04.110Z,100037.47
2023-06-29T15:38:32.412Z,100029.59
2023-06-29T15:41:00.280Z,100030.75
2023-06-29T15:43:29.345Z,100023.94
2023-06-29T15:45:57.143Z,100018.25
2023-06-29T15:48:26.016Z,100023.81
2023-06-29T15:51:18.935Z,100015.81
2023-06-29T15:53:46.651Z,100017.88
2023-06-29T15:56:14.578Z,100016.78
2023-06-29T15:58:43.777Z,100024.38
2023-06-29T16:01:11.773Z,100022.94
2023-06-29T16:03:40.733Z,100013.19
2023-06-29T16:06:08.517Z,100013.97
2023-06-29T16:08:36.385Z,100008.16
2023-06-29T16:11:04.198Z,100001.53
2023-06-29T16:13:32.022Z,100002.59
2023-06-29T16:16:01.166Z,100008.50
2023-06-29T16:18:29.873Z,100008.81
2023-06-29T16:20:57.698Z,99996.78
2023-06-29T16:23:25.503Z,100003.94
2023-06-29T16:25:53.523Z,100003.59
2023-06-29T16:28:21.283Z,99998.88
2023-06-29T16:30:49.265Z,100005.63
2023-06-29T16:33:18.910Z,99994.94
2023-06-29T16:35:46.873Z,99995.69
2023-06-29T16:38:14.865Z,99988.38
2023-06-29T16:40:42.700Z,99992.69
2023-06-29T16:43:10.464Z,99992.94
2023-06-29T16:46:33.983Z,99986.31
2023-06-29T16:49:03.200Z,99978.19
2023-06-29T16:51:31.697Z,99981.63
2023-06-29T16:53:59.915Z,99986.75
2023-06-29T16:56:29.636Z,99986.59
2023-06-29T16:58:57.650Z,99981.38
2023-06-29T17:01:25.770Z,99984.44
2023-06-29T17:03:53.744Z,99988.56
2023-06-29T17:06:23.021Z,99986.31
2023-06-29T17:08:52.397Z,99983.34
2023-06-29T17:11:20.617Z,99987.41
2023-06-29T17:17:34.970Z,99979.38
2023-06-29T17:20:03.852Z,99987.47
2023-06-29T17:22:33.178Z,99991.28
2023-06-29T17:25:00.970Z,99982.50
2023-06-29T17:27:28.766Z,99999.03
2023-06-29T17:29:56.529Z,99994.91
2023-06-29T17:32:24.382Z,99992.56
2023-06-29T17:35:13.937Z,99997.13
2023-06-29T17:37:43.821Z,99995.94
2023-06-29T17:40:11.838Z,99993.09
2023-06-29T17:42:39.576Z,99997.91
2023-06-29T17:45:09.824Z,99987.38
2023-06-29T17:48:35.821Z,99984.28
2023-06-29T17:51:14.007Z,99984.16
2023-06-29T17:53:44.665Z,99984.09
2023-06-29T17:56:15.381Z,99997.63
2023-06-29T17:58:44.867Z,99995.72
2023-06-29T18:01:13.197Z,99993.69
2023-06-29T18:03:50.127Z,99988.03
2023-06-29T18:06:19.398Z,99989.00
2023-06-29T18:08:48.804Z,99991.84
2023-06-29T18:11:16.598Z,99994.72
2023-06-29T18:13:45.156Z,99992.13
2023-06-29T18:16:13.078Z,99989.03
2023-06-29T18:19:03.609Z,100004.84
2023-06-29T18:21:31.349Z,99996.28
2023-06-29T18:24:00.557Z,100000.09
2023-06-29T18:26:28.324Z,100006.38
2023-06-29T18:28:56.209Z,99998.06
2023-06-29T18:31:24.114Z,99997.13
2023-06-29T18:33:51.978Z,99996.78
2023-06-29T18:36:19.946Z,99995.06
2023-06-29T18:38:47.754Z,100002.91
2023-06-29T18:41:35.159Z,100002.06
2023-06-29T18:44:04.346Z,100002.31
2023-06-29T18:46:32.880Z,100005.03
2023-06-29T18:49:00.742Z,99997.94
2023-06-29T18:51:28.525Z,100000.91
2023-06-29T18:53:56.347Z,99995.94
2023-06-29T18:56:24.668Z,99997.22
2023-06-29T18:58:53.860Z,99997.69
2023-06-29T19:01:21.754Z,99996.75
2023-06-29T19:03:49.780Z,100001.59
2023-06-29T19:06:17.800Z,99994.47
2023-06-29T19:08:45.723Z,99991.41
2023-06-29T19:11:13.625Z,99986.41
2023-06-29T19:13:41.416Z,99990.44
2023-06-29T19:16:10.628Z,100002.41
2023-06-29T19:18:38.457Z,99999.31
2023-06-29T19:21:06.509Z,100005.72
2023-06-29T19:23:34.399Z,100005.63
2023-06-29T19:26:02.173Z,100007.16
2023-06-29T19:28:30.096Z,100012.00
2023-06-29T19:30:57.872Z,100005.59
2023-06-29T19:33:27.037Z,100009.84
2023-06-29T19:35:54.958Z,100005.28
2023-06-29T19:38:23.212Z,100008.69
2023-06-29T19:40:51.062Z,100001.09
2023-06-29T19:43:18.865Z,100008.91
2023-06-29T19:45:48.591Z,100000.81
2023-06-29T19:48:16.948Z,100003.03
2023-06-29T19:50:46.428Z,100015.69
2023-06-29T19:53:14.870Z,100010.09
2023-06-29T19:55:43.202Z,100007.06
2023-06-29T19:58:11.445Z,100006.13
2023-06-29T20:00:39.479Z,100007.59
2023-06-29T20:03:07.464Z,100006.84
2023-06-29T20:05:35.855Z,100009.41
2023-06-29T20:08:05.120Z,100001.69
2023-06-29T20:10:32.921Z,100011.53
2023-06-29T20:13:01.028Z,100015.75
2023-06-29T20:15:28.839Z,100013.28
2023-06-29T20:17:56.734Z,100009.72
2023-06-29T20:20:25.478Z,100013.13
2023-06-29T20:22:53.407Z,100008.13
2023-06-29T20:25:22.581Z,100010.63
2023-06-29T20:27:50.405Z,100010.47
2023-06-29T20:30:18.232Z,100014.72
2023-06-29T20:32:46.069Z,100010.53
2023-06-29T20:39:01.388Z,100015.47
2023-06-29T20:41:30.740Z,100018.00
2023-06-29T20:43:58.586Z,100014.75
2023-06-29T20:46:28.296Z,100016.09
2023-06-29T20:48:56.146Z,100020.34
2023-06-29T20:51:24.042Z,100021.06
2023-06-29T20:53:51.960Z,100018.63
2023-06-29T20:56:20.719Z,100011.19
2023-06-29T20:58:49.987Z,100007.72
2023-06-29T21:01:18.029Z,100015.56
2023-06-29T21:03:46.214Z,100010.31
2023-06-29T21:06:14.424Z,100004.31
2023-06-29T21:08:42.483Z,100008.72
2023-06-29T21:11:10.828Z,100017.97
2023-06-29T21:13:39.004Z,100014.00
2023-06-29T21:16:09.037Z,100020.94
2023-06-29T21:18:37.549Z,100019.09
2023-06-29T21:21:06.461Z,100015.34
2023-06-29T21:23:34.754Z,100014.97
2023-06-29T21:26:05.299Z,100012.47
2023-06-29T21:28:35.208Z,100009.78
2023-06-29T21:31:05.325Z,100008.13
2023-06-29T21:33:36.958Z,100005.44
2023-06-29T21:36:06.422Z,100007.31
2023-06-29T21:38:34.760Z,100002.31
2023-06-29T21:41:02.756Z,100003.59
2023-06-29T21:43:30.609Z,100000.47
2023-06-29T21:45:58.519Z,99990.66
2023-06-29T21:48:26.514Z,100001.31
2023-06-29T21:50:55.862Z,100000.69
2023-06-29T21:53:23.720Z,100005.94
2023-06-29T21:55:51.599Z,99998.22
2023-06-29T21:58:19.472Z,99998.22
2023-06-29T22:00:47.712Z,99998.22
2023-06-29T22:03:15.795Z,99995.72
2023-06-29T22:05:44.051Z,99998.66
2023-06-29T22:08:13.640Z,99993.44
2023-06-29T22:10:41.444Z,99995.50
2023-06-29T22:13:09.284Z,99998.22
2023-06-29T22:15:44.573Z,99993.22
2023-06-29T22:18:13.057Z,99995.50
2023-06-29T22:20:41.767Z,99985.69
2023-06-29T22:23:09.588Z,99987.16
2023-06-29T22:25:38.767Z,99986.31
2023-06-29T22:28:08.021Z,99979.41
2023-06-29T22:30:36.036Z,99982.38
2023-06-29T22:33:04.053Z,99975.69
2023-06-29T22:35:32.190Z,99974.41
2023-06-29T22:38:00.081Z,99976.72
2023-06-29T22:40:27.911Z,99973.38
2023-06-29T22:42:57.222Z,99981.28
2023-06-29T22:45:25.253Z,99980.84
2023-06-29T22:47:53.124Z,99981.69
2023-06-29T22:50:21.232Z,99974.38
2023-06-29T22:52:49.037Z,99978.75
2023-06-29T22:55:16.900Z,99978.94
2023-06-29T22:57:46.634Z,99973.03
2023-06-29T23:00:16.542Z,99961.78
2023-06-29T23:02:44.508Z,99962.19
2023-06-29T23:05:13.540Z,99961.75
2023-06-29T23:07:45.121Z,99960.94
2023-06-29T23:10:14.389Z,99957.81
2023-06-29T23:12:46.408Z,99962.59
2023-06-29T23:15:16.376Z,99959.25
2023-06-29T23:17:44.645Z,99955.91
2023-06-29T23:20:14.257Z,99945.50
2023-06-29T23:22:45.009Z,99954.44
2023-06-29T23:25:13.267Z,99953.19
2023-06-29T23:27:44.266Z,99953.38
2023-06-29T23:30:13.650Z,99951.94
2023-06-29T23:32:43.819Z,99955.22
2023-06-29T23:35:11.926Z,99951.69
2023-06-29T23:37:40.079Z,99956.09
2023-06-29T23:40:11.754Z,99953.38
2023-06-29T23:42:40.212Z,99946.25
2023-06-29T23:45:11.148Z,99942.69
2023-06-29T23:47:40.338Z,99943.47
2023-06-29T23:50:12.171Z,99939.94
2023-06-29T23:52:40.529Z,99937.16
2023-06-29T23:55:09.140Z,99936.72
2023-06-29T23:57:37.186Z,99940.50
